Oakland City, Indiana
Current Conditions -  °F | °C
As of 5:54 PM on Friday 24 Oct 2014 (Local Time) from KEVV Reporting Station
Clear Clear  
Wind Chill: 64°   Ceiling: Unl
Heat Index: 64°   Visibility: 10mi
Dew Point: 53°   Wind: 3mph
Humidity: 67%   Direction: 180°S
Pressure: 30.04"   Gusts: NA
Location:  38.34°N, 87.35°W
Report Text: KEVV 242254Z 18003KT 10SM CLR 18/12 A3004 RMK AO2 SLP173 T01780117
Loading
Personal Weather Stations






























Interactive Weather Map
Tropical Storm Tracking
New forecast layout! Learn more

10-Day Weather Forecast

Advertisements
Track Severe Weather on mobile